Harborton, Virginia
Current Conditions -  °F | °C
As of 6:15 AM on Wednesday 26 Nov 2014 (Local Time) from KMFV Reporting Station
Moderate Rain Moderate Rain  
Wind Chill: 38°   Ceiling: 700
Heat Index: 45°   Visibility: 7mi
Dew Point: 41°   Wind: 13mph
Humidity: 87%   Direction: 50°NE
Pressure: 29.98"   Gusts: 21mph
Location:  37.66°N, 75.83°W
Report Text: KMFV 261115Z AUTO 05011G18KT 7SM RA BKN007 OVC011 07/05 A2998 RMK AO2 P0001
Loading
Personal Weather Stations






























Interactive Weather Map New forecast layout! Learn more

10-Day Weather Forecast

Advertisements
Track Severe Weather on mobile